sensor_id;sensor_type;location;lat;lon;timestamp;pressure;altitude;pressure_sealevel;temperature;humidity
48517;BME280;34310;51.904;4.256;2022-11-23T00:01:24;99555.31;;;14.65;68.13
48517;BME280;34310;51.904;4.256;2022-11-23T00:03:54;99564.81;;;14.65;68.15
48517;BME280;34310;51.904;4.256;2022-11-23T00:06:23;99565.59;;;14.62;68.10
48517;BME280;34310;51.904;4.256;2022-11-23T00:08:51;99563.00;;;14.62;68.07
48517;BME280;34310;51.904;4.256;2022-11-23T00:11:20;99563.81;;;14.61;68.26
48517;BME280;34310;51.904;4.256;2022-11-23T00:13:47;99558.63;;;14.61;68.05
48517;BME280;34310;51.904;4.256;2022-11-23T00:16:17;99570.69;;;14.59;68.10
48517;BME280;34310;51.904;4.256;2022-11-23T00:18:45;99563.69;;;14.56;68.16
48517;BME280;34310;51.904;4.256;2022-11-23T00:21:15;99574.06;;;14.56;68.13
48517;BME280;34310;51.904;4.256;2022-11-23T00:23:44;99575.84;;;14.57;68.14
48517;BME280;34310;51.904;4.256;2022-11-23T00:26:12;99569.66;;;14.54;68.11
48517;BME280;34310;51.904;4.256;2022-11-23T00:28:40;99579.16;;;14.53;68.30
48517;BME280;34310;51.904;4.256;2022-11-23T00:31:09;99579.09;;;14.52;68.22
48517;BME280;34310;51.904;4.256;2022-11-23T00:33:37;99573.91;;;14.52;68.35
48517;BME280;34310;51.904;4.256;2022-11-23T00:36:07;99582.47;;;14.49;68.26
48517;BME280;34310;51.904;4.256;2022-11-23T00:38:37;99585.91;;;14.48;68.33
48517;BME280;34310;51.904;4.256;2022-11-23T00:41:07;99583.25;;;14.47;68.38
48517;BME280;34310;51.904;4.256;2022-11-23T00:43:34;99576.34;;;14.47;68.44
48517;BME280;34310;51.904;4.256;2022-11-23T00:46:25;99581.53;;;14.47;68.29
48517;BME280;34310;51.904;4.256;2022-11-23T00:48:54;99585.78;;;14.45;68.30
48517;BME280;34310;51.904;4.256;2022-11-23T00:51:28;99585.72;;;14.44;68.41
48517;BME280;34310;51.904;4.256;2022-11-23T00:53:57;99583.94;;;14.43;68.56
48517;BME280;34310;51.904;4.256;2022-11-23T00:56:26;99585.59;;;14.41;68.58
48517;BME280;34310;51.904;4.256;2022-11-23T00:58:55;99580.34;;;14.39;68.47
48517;BME280;34310;51.904;4.256;2022-11-23T01:01:26;99590.66;;;14.38;68.55
48517;BME280;34310;51.904;4.256;2022-11-23T01:03:56;99585.44;;;14.36;68.70
48517;BME280;34310;51.904;4.256;2022-11-23T01:06:26;99580.19;;;14.35;68.69
48517;BME280;34310;51.904;4.256;2022-11-23T01:08:56;99583.66;;;14.35;68.71
48517;BME280;34310;51.904;4.256;2022-11-23T01:11:26;99580.28;;;14.38;68.49
48517;BME280;34310;51.904;4.256;2022-11-23T01:13:54;99584.00;;;14.44;68.40
48517;BME280;34310;51.904;4.256;2022-11-23T01:16:27;99587.50;;;14.45;68.35
48517;BME280;34310;51.904;4.256;2022-11-23T01:18:56;99584.88;;;14.45;68.35
48517;BME280;34310;51.904;4.256;2022-11-23T01:21:26;99590.16;;;14.46;68.29
48517;BME280;34310;51.904;4.256;2022-11-23T01:23:54;99588.63;;;14.51;68.23
48517;BME280;34310;51.904;4.256;2022-11-23T01:26:22;99586.13;;;14.54;68.18
48517;BME280;34310;51.904;4.256;2022-11-23T01:28:50;99583.69;;;14.59;68.05
48517;BME280;34310;51.904;4.256;2022-11-23T01:31:22;99587.34;;;14.66;67.89
48517;BME280;34310;51.904;4.256;2022-11-23T01:33:57;99588.34;;;14.69;67.86
48517;BME280;34310;51.904;4.256;2022-11-23T01:36:27;99588.44;;;14.72;67.81
48517;BME280;34310;51.904;4.256;2022-11-23T01:38:56;99593.81;;;14.77;67.69
48517;BME280;34310;51.904;4.256;2022-11-23T01:41:26;99592.16;;;14.79;67.93
48517;BME280;34310;51.904;4.256;2022-11-23T01:43:54;99597.41;;;14.80;67.64
48517;BME280;34310;51.904;4.256;2022-11-23T01:46:22;99596.56;;;14.81;67.70
48517;BME280;34310;51.904;4.256;2022-11-23T01:51:36;99594.03;;;14.83;67.68
48517;BME280;34310;51.904;4.256;2022-11-23T01:54:44;99598.34;;;14.82;67.79
48517;BME280;34310;51.904;4.256;2022-11-23T01:57:14;99595.75;;;14.82;67.73
48517;BME280;34310;51.904;4.256;2022-11-23T01:59:45;99596.63;;;14.83;67.66
48517;BME280;34310;51.904;4.256;2022-11-23T02:02:14;99594.88;;;14.82;67.80
48517;BME280;34310;51.904;4.256;2022-11-23T02:04:45;99589.72;;;14.83;67.64
48517;BME280;34310;51.904;4.256;2022-11-23T02:07:13;99604.41;;;14.83;67.69
48517;BME280;34310;51.904;4.256;2022-11-23T02:09:43;99593.97;;;14.81;67.73
48517;BME280;34310;51.904;4.256;2022-11-23T02:12:12;99600.06;;;14.82;67.78
48517;BME280;34310;51.904;4.256;2022-11-23T02:14:40;99601.72;;;14.80;67.79
48517;BME280;34310;51.904;4.256;2022-11-23T02:17:08;99608.75;;;14.82;67.61
48517;BME280;34310;51.904;4.256;2022-11-23T02:22:32;99608.69;;;14.81;67.72
48517;BME280;34310;51.904;4.256;2022-11-23T02:25:07;99606.88;;;14.78;67.82
48517;BME280;34310;51.904;4.256;2022-11-23T02:27:36;99599.03;;;14.77;67.71
48517;BME280;34310;51.904;4.256;2022-11-23T02:30:10;99600.75;;;14.76;67.85
48517;BME280;34310;51.904;4.256;2022-11-23T02:32:37;99605.81;;;14.73;67.87
48517;BME280;34310;51.904;4.256;2022-11-23T02:35:05;99602.38;;;14.74;67.71
48517;BME280;34310;51.904;4.256;2022-11-23T02:37:32;99604.03;;;14.72;67.86
48517;BME280;34310;51.904;4.256;2022-11-23T02:40:01;99603.19;;;14.73;67.85
48517;BME280;34310;51.904;4.256;2022-11-23T02:42:31;99599.63;;;14.70;67.88
48517;BME280;34310;51.904;4.256;2022-11-23T02:45:09;99611.72;;;14.69;67.90
48517;BME280;34310;51.904;4.256;2022-11-23T02:47:42;99611.72;;;14.69;67.85
48517;BME280;34310;51.904;4.256;2022-11-23T02:50:26;99616.88;;;14.68;67.88
48517;BME280;34310;51.904;4.256;2022-11-23T02:52:53;99610.78;;;14.67;68.04
48517;BME280;34310;51.904;4.256;2022-11-23T02:55:21;99612.41;;;14.64;68.01
48517;BME280;34310;51.904;4.256;2022-11-23T02:57:48;99621.91;;;14.63;67.99
48517;BME280;34310;51.904;4.256;2022-11-23T03:00:16;99620.16;;;14.62;68.06
48517;BME280;34310;51.904;4.256;2022-11-23T03:02:44;99616.63;;;14.60;68.04
48517;BME280;34310;51.904;4.256;2022-11-23T03:05:11;99616.56;;;14.59;68.01
48517;BME280;34310;51.904;4.256;2022-11-23T03:07:39;99614.78;;;14.57;68.12
48517;BME280;34310;51.904;4.256;2022-11-23T03:10:06;99608.66;;;14.55;68.17
48517;BME280;34310;51.904;4.256;2022-11-23T03:12:34;99605.19;;;14.55;68.07
48517;BME280;34310;51.904;4.256;2022-11-23T03:15:01;99617.34;;;14.56;68.09
48517;BME280;34310;51.904;4.256;2022-11-23T03:17:29;99616.41;;;14.54;68.20
48517;BME280;34310;51.904;4.256;2022-11-23T03:19:57;99619.00;;;14.54;68.13
48517;BME280;34310;51.904;4.256;2022-11-23T03:22:24;99626.75;;;14.52;68.17
48517;BME280;34310;51.904;4.256;2022-11-23T03:24:51;99623.22;;;14.50;68.29
48517;BME280;34310;51.904;4.256;2022-11-23T03:27:18;99620.56;;;14.49;68.19
48517;BME280;34310;51.904;4.256;2022-11-23T03:29:46;99628.34;;;14.49;68.19
48517;BME280;34310;51.904;4.256;2022-11-23T03:32:13;99620.56;;;14.49;68.35
48517;BME280;34310;51.904;4.256;2022-11-23T03:34:40;99626.53;;;14.46;68.34
48517;BME280;34310;51.904;4.256;2022-11-23T03:37:07;99627.31;;;14.45;68.28
48517;BME280;34310;51.904;4.256;2022-11-23T03:39:35;99632.53;;;14.45;68.15
48517;BME280;34310;51.904;4.256;2022-11-23T03:42:02;99627.28;;;14.44;68.28
48517;BME280;34310;51.904;4.256;2022-11-23T03:44:29;99628.00;;;14.41;68.50
48517;BME280;34310;51.904;4.256;2022-11-23T03:46:56;99625.38;;;14.40;68.55
48517;BME280;34310;51.904;4.256;2022-11-23T03:49:25;99628.97;;;14.43;68.45
48517;BME280;34310;51.904;4.256;2022-11-23T03:51:52;99624.72;;;14.45;68.54
48517;BME280;34310;51.904;4.256;2022-11-23T03:54:19;99630.16;;;14.51;68.22
48517;BME280;34310;51.904;4.256;2022-11-23T03:56:47;99625.13;;;14.56;68.07
48517;BME280;34310;51.904;4.256;2022-11-23T03:59:14;99629.59;;;14.60;68.17
48517;BME280;34310;51.904;4.256;2022-11-23T04:01:41;99625.44;;;14.65;67.94
48517;BME280;34310;51.904;4.256;2022-11-23T04:04:08;99635.22;;;14.72;67.91
48517;BME280;34310;51.904;4.256;2022-11-23T04:06:36;99628.50;;;14.77;67.71
48517;BME280;34310;51.904;4.256;2022-11-23T04:09:03;99622.63;;;14.83;67.75
48517;BME280;34310;51.904;4.256;2022-11-23T04:11:30;99631.34;;;14.85;67.70
48517;BME280;34310;51.904;4.256;2022-11-23T04:13:57;99629.69;;;14.87;67.58
48517;BME280;34310;51.904;4.256;2022-11-23T04:16:25;99627.13;;;14.88;67.55
48517;BME280;34310;51.904;4.256;2022-11-23T04:18:52;99617.66;;;14.91;67.60
48517;BME280;34310;51.904;4.256;2022-11-23T04:21:19;99618.50;;;14.90;67.65
48517;BME280;34310;51.904;4.256;2022-11-23T04:23:46;99622.03;;;14.92;67.67
48517;BME280;34310;51.904;4.256;2022-11-23T04:26:14;99611.63;;;14.92;67.54
48517;BME280;34310;51.904;4.256;2022-11-23T04:28:41;99615.94;;;14.91;67.61
48517;BME280;34310;51.904;4.256;2022-11-23T04:31:09;99615.13;;;14.92;67.56
48517;BME280;34310;51.904;4.256;2022-11-23T04:33:36;99609.91;;;14.92;67.56
48517;BME280;34310;51.904;4.256;2022-11-23T04:36:03;99604.78;;;14.94;67.51
48517;BME280;34310;51.904;4.256;2022-11-23T04:38:31;99609.97;;;14.94;67.60
48517;BME280;34310;51.904;4.256;2022-11-23T04:40:58;99609.09;;;14.93;67.41
48517;BME280;34310;51.904;4.256;2022-11-23T04:43:26;99609.97;;;14.94;67.65
48517;BME280;34310;51.904;4.256;2022-11-23T04:45:53;99614.28;;;14.93;67.63
48517;BME280;34310;51.904;4.256;2022-11-23T04:48:20;99612.56;;;14.94;67.59
48517;BME280;34310;51.904;4.256;2022-11-23T04:50:48;99613.41;;;14.93;67.65
48517;BME280;34310;51.904;4.256;2022-11-23T04:53:21;99610.81;;;14.93;67.51
48517;BME280;34310;51.904;4.256;2022-11-23T04:55:48;99616.84;;;14.92;67.41
48517;BME280;34310;51.904;4.256;2022-11-23T04:58:16;99621.16;;;14.91;67.52
48517;BME280;34310;51.904;4.256;2022-11-23T05:00:43;99625.47;;;14.91;67.55
48517;BME280;34310;51.904;4.256;2022-11-23T05:03:10;99625.47;;;14.91;67.56
48517;BME280;34310;51.904;4.256;2022-11-23T05:05:39;99615.03;;;14.89;67.54
48517;BME280;34310;51.904;4.256;2022-11-23T05:08:06;99620.22;;;14.89;67.47
48517;BME280;34310;51.904;4.256;2022-11-23T05:10:34;99618.34;;;14.85;67.68
48517;BME280;34310;51.904;4.256;2022-11-23T05:13:02;99624.44;;;14.85;67.47
48517;BME280;34310;51.904;4.256;2022-11-23T05:15:30;99614.03;;;14.85;67.66
48517;BME280;34310;51.904;4.256;2022-11-23T05:18:04;99617.47;;;14.84;67.58
48517;BME280;34310;51.904;4.256;2022-11-23T05:20:36;99613.06;;;14.82;67.46
48517;BME280;34310;51.904;4.256;2022-11-23T05:23:03;99615.66;;;14.82;67.51
48517;BME280;34310;51.904;4.256;2022-11-23T05:25:31;99610.34;;;14.79;67.60
48517;BME280;34310;51.904;4.256;2022-11-23T05:27:58;99622.50;;;14.80;67.68
48517;BME280;34310;51.904;4.256;2022-11-23T05:30:43;99626.72;;;14.76;67.55
48517;BME280;34310;51.904;4.256;2022-11-23T05:33:10;99616.31;;;14.76;67.82
48517;BME280;34310;51.904;4.256;2022-11-23T05:35:38;99613.69;;;14.75;67.61
48517;BME280;34310;51.904;4.256;2022-11-23T05:38:05;99613.59;;;14.73;67.79
48517;BME280;34310;51.904;4.256;2022-11-23T05:40:32;99619.63;;;14.72;67.78
48517;BME280;34310;51.904;4.256;2022-11-23T05:43:00;99619.56;;;14.71;67.78
48517;BME280;34310;51.904;4.256;2022-11-23T05:45:27;99620.41;;;14.70;67.74
48517;BME280;34310;51.904;4.256;2022-11-23T05:47:56;99620.25;;;14.65;67.88
48517;BME280;34310;51.904;4.256;2022-11-23T05:50:26;99610.69;;;14.64;68.01
48517;BME280;34310;51.904;4.256;2022-11-23T05:52:56;99615.00;;;14.64;67.97
48517;BME280;34310;51.904;4.256;2022-11-23T05:55:23;99617.53;;;14.62;67.91
48517;BME280;34310;51.904;4.256;2022-11-23T05:57:51;99623.53;;;14.60;68.01
48517;BME280;34310;51.904;4.256;2022-11-23T06:00:19;99615.72;;;14.60;67.98
48517;BME280;34310;51.904;4.256;2022-11-23T06:02:46;99614.00;;;14.60;68.02
48517;BME280;34310;51.904;4.256;2022-11-23T06:05:14;99617.34;;;14.56;68.01
48517;BME280;34310;51.904;4.256;2022-11-23T06:07:41;99617.38;;;14.57;67.91
48517;BME280;34310;51.904;4.256;2022-11-23T06:10:09;99621.66;;;14.55;68.07
48517;BME280;34310;51.904;4.256;2022-11-23T06:12:37;99616.34;;;14.52;68.00
48517;BME280;34310;51.904;4.256;2022-11-23T06:15:05;99617.97;;;14.49;68.24
48517;BME280;34310;51.904;4.256;2022-11-23T06:17:32;99627.56;;;14.51;68.20
48517;BME280;34310;51.904;4.256;2022-11-23T06:19:59;99631.88;;;14.51;68.19
48517;BME280;34310;51.904;4.256;2022-11-23T06:22:27;99625.69;;;14.47;68.17
48517;BME280;34310;51.904;4.256;2022-11-23T06:24:54;99621.25;;;14.45;68.29
48517;BME280;34310;51.904;4.256;2022-11-23T06:27:21;99622.06;;;14.44;68.29
48517;BME280;34310;51.904;4.256;2022-11-23T06:29:49;99630.63;;;14.41;68.45
48517;BME280;34310;51.904;4.256;2022-11-23T06:32:16;99626.13;;;14.37;68.52
48517;BME280;34310;51.904;4.256;2022-11-23T06:34:43;99621.94;;;14.41;68.51
48517;BME280;34310;51.904;4.256;2022-11-23T06:37:10;99627.47;;;14.48;68.26
48517;BME280;34310;51.904;4.256;2022-11-23T06:39:38;99623.31;;;14.53;68.12
48517;BME280;34310;51.904;4.256;2022-11-23T06:42:06;99623.53;;;14.60;67.93
48517;BME280;34310;51.904;4.256;2022-11-23T06:44:53;99633.34;;;14.68;67.86
48517;BME280;34310;51.904;4.256;2022-11-23T06:47:20;99625.69;;;14.73;67.77
48517;BME280;34310;51.904;4.256;2022-11-23T06:49:52;99619.91;;;14.80;67.89
48517;BME280;34310;51.904;4.256;2022-11-23T06:52:19;99639.97;;;14.84;67.75
48517;BME280;34310;51.904;4.256;2022-11-23T06:54:47;99638.34;;;14.87;67.50
48517;BME280;34310;51.904;4.256;2022-11-23T06:57:14;99640.19;;;14.90;67.72
48517;BME280;34310;51.904;4.256;2022-11-23T06:59:41;99647.19;;;14.93;67.43
48517;BME280;34310;51.904;4.256;2022-11-23T07:02:11;99649.84;;;14.94;67.66
48517;BME280;34310;51.904;4.256;2022-11-23T07:04:39;99655.91;;;14.95;67.47
48517;BME280;34310;51.904;4.256;2022-11-23T07:07:09;99649.00;;;14.95;67.50
48517;BME280;34310;51.904;4.256;2022-11-23T07:09:36;99661.16;;;14.96;67.44
48517;BME280;34310;51.904;4.256;2022-11-23T07:12:04;99659.44;;;14.97;67.61
48517;BME280;34310;51.904;4.256;2022-11-23T07:14:31;99655.19;;;14.99;67.46
48517;BME280;34310;51.904;4.256;2022-11-23T07:16:59;99667.34;;;15.00;67.40
48517;BME280;34310;51.904;4.256;2022-11-23T07:19:26;99663.88;;;14.99;67.40
48517;BME280;34310;51.904;4.256;2022-11-23T07:21:53;99663.88;;;14.99;67.37
48517;BME280;34310;51.904;4.256;2022-11-23T07:24:20;99671.72;;;15.01;67.39
48517;BME280;34310;51.904;4.256;2022-11-23T07:26:48;99669.06;;;14.99;67.48
48517;BME280;34310;51.904;4.256;2022-11-23T07:29:16;99675.16;;;15.00;67.41
48517;BME280;34310;51.904;4.256;2022-11-23T07:31:43;99675.19;;;15.01;67.32
48517;BME280;34310;51.904;4.256;2022-11-23T07:34:10;99677.75;;;15.00;67.38
48517;BME280;34310;51.904;4.256;2022-11-23T07:36:38;99688.97;;;14.99;67.79
48517;BME280;34310;51.904;4.256;2022-11-23T07:39:06;99688.97;;;14.99;67.67
48517;BME280;34310;51.904;4.256;2022-11-23T07:41:33;99697.66;;;14.99;67.96
48517;BME280;34310;51.904;4.256;2022-11-23T07:44:00;99690.63;;;14.97;68.02
48517;BME280;34310;51.904;4.256;2022-11-23T07:46:28;99694.03;;;14.94;67.87
48517;BME280;34310;51.904;4.256;2022-11-23T07:48:55;99704.41;;;14.94;68.04
48517;BME280;34310;51.904;4.256;2022-11-23T07:51:28;99708.72;;;14.94;67.96
48517;BME280;34310;51.904;4.256;2022-11-23T07:53:55;99708.72;;;14.94;67.93
48517;BME280;34310;51.904;4.256;2022-11-23T07:56:24;99713.94;;;14.94;67.91
48517;BME280;34310;51.904;4.256;2022-11-23T07:58:51;99708.72;;;14.94;67.83
48517;BME280;34310;51.904;4.256;2022-11-23T08:01:19;99710.38;;;14.92;67.85
48517;BME280;34310;51.904;4.256;2022-11-23T08:03:47;99709.47;;;14.90;67.89
48517;BME280;34310;51.904;4.256;2022-11-23T08:06:15;99707.78;;;14.92;67.80
48517;BME280;34310;51.904;4.256;2022-11-23T08:08:42;99708.63;;;14.91;67.83
48517;BME280;34310;51.904;4.256;2022-11-23T08:11:10;99710.28;;;14.88;67.85
48517;BME280;34310;51.904;4.256;2022-11-23T08:13:40;99703.31;;;14.87;67.86
48517;BME280;34310;51.904;4.256;2022-11-23T08:16:08;99708.47;;;14.86;67.86
48517;BME280;34310;51.904;4.256;2022-11-23T08:18:35;99705.75;;;14.83;67.96
48517;BME280;34310;51.904;4.256;2022-11-23T08:21:03;99705.81;;;14.84;67.95
48517;BME280;34310;51.904;4.256;2022-11-23T08:23:31;99706.59;;;14.82;67.80
48517;BME280;34310;51.904;4.256;2022-11-23T08:25:58;99703.06;;;14.80;67.88
48517;BME280;34310;51.904;4.256;2022-11-23T08:28:28;99702.19;;;14.79;67.97
48517;BME280;34310;51.904;4.256;2022-11-23T08:30:55;99709.09;;;14.79;67.96
48517;BME280;34310;51.904;4.256;2022-11-23T08:33:22;99697.03;;;14.81;67.87
48517;BME280;34310;51.904;4.256;2022-11-23T08:35:50;99704.72;;;14.78;68.01
48517;BME280;34310;51.904;4.256;2022-11-23T08:38:17;99708.25;;;14.80;67.79
48517;BME280;34310;51.904;4.256;2022-11-23T08:40:44;99696.94;;;14.78;67.88
48517;BME280;34310;51.904;4.256;2022-11-23T08:43:12;99693.56;;;14.80;67.82
48517;BME280;34310;51.904;4.256;2022-11-23T08:45:39;99700.56;;;14.83;67.89
48517;BME280;34310;51.904;4.256;2022-11-23T08:48:06;99688.50;;;14.85;67.77
48517;BME280;34310;51.904;4.256;2022-11-23T08:50:34;99680.78;;;14.86;67.60
48517;BME280;34310;51.904;4.256;2022-11-23T08:53:03;99679.06;;;14.87;67.70
48517;BME280;34310;51.904;4.256;2022-11-23T08:55:30;99673.13;;;14.91;67.67
48517;BME280;34310;51.904;4.256;2022-11-23T08:57:58;99662.06;;;14.97;67.31
48517;BME280;34310;51.904;4.256;2022-11-23T09:00:26;99667.59;;;15.06;67.28
48517;BME280;34310;51.904;4.256;2022-11-23T09:02:54;99650.41;;;15.11;67.07
48517;BME280;34310;51.904;4.256;2022-11-23T09:05:25;99641.09;;;15.17;66.96
48517;BME280;34310;51.904;4.256;2022-11-23T09:07:53;99643.91;;;15.24;66.77
48517;BME280;34310;51.904;4.256;2022-11-23T09:10:21;99629.31;;;15.29;66.55
48517;BME280;34310;51.904;4.256;2022-11-23T09:12:48;99638.28;;;15.37;66.24
48517;BME280;34310;51.904;4.256;2022-11-23T09:15:16;99631.47;;;15.40;66.23
48517;BME280;34310;51.904;4.256;2022-11-23T09:17:44;99631.56;;;15.43;66.00
48517;BME280;34310;51.904;4.256;2022-11-23T09:20:12;99612.59;;;15.47;65.80
48517;BME280;34310;51.904;4.256;2022-11-23T09:22:39;99615.31;;;15.50;65.87
48517;BME280;34310;51.904;4.256;2022-11-23T09:25:06;99606.72;;;15.53;65.65
48517;BME280;34310;51.904;4.256;2022-11-23T09:27:35;99608.53;;;15.56;65.50
48517;BME280;34310;51.904;4.256;2022-11-23T09:30:02;99608.53;;;15.56;65.55
48517;BME280;34310;51.904;4.256;2022-11-23T09:32:31;99603.31;;;15.56;65.58
48517;BME280;34310;51.904;4.256;2022-11-23T09:34:59;99611.94;;;15.55;65.26
48517;BME280;34310;51.904;4.256;2022-11-23T09:37:26;99605.91;;;15.56;65.29
48517;BME280;34310;51.904;4.256;2022-11-23T09:39:53;99615.44;;;15.55;65.36
48517;BME280;34310;51.904;4.256;2022-11-23T09:45:46;99624.25;;;15.59;65.41
48517;BME280;34310;51.904;4.256;2022-11-23T09:53:48;99641.91;;;15.42;65.63
48517;BME280;34310;51.904;4.256;2022-11-23T09:56:28;99650.41;;;15.36;65.90
48517;BME280;34310;51.904;4.256;2022-11-23T09:58:59;99645.91;;;15.32;66.08
48517;BME280;34310;51.904;4.256;2022-11-23T10:01:28;99642.38;;;15.30;66.05
48517;BME280;34310;51.904;4.256;2022-11-23T10:03:57;99657.00;;;15.27;66.16
48517;BME280;34310;51.904;4.256;2022-11-23T10:06:29;99657.78;;;15.24;66.16
48517;BME280;34310;51.904;4.256;2022-11-23T10:09:21;99656.75;;;15.19;66.22
48517;BME280;34310;51.904;4.256;2022-11-23T10:11:58;99647.97;;;15.15;66.25
48517;BME280;34310;51.904;4.256;2022-11-23T10:15:03;99649.59;;;15.12;66.43
48517;BME280;34310;51.904;4.256;2022-11-23T10:23:01;99621.72;;;15.08;66.52
48517;BME280;34310;51.904;4.256;2022-11-23T10:25:43;99629.44;;;15.05;66.60
48517;BME280;34310;51.904;4.256;2022-11-23T10:28:15;99621.63;;;15.05;66.54
48517;BME280;34310;51.904;4.256;2022-11-23T10:30:44;99617.13;;;15.01;66.64
48517;BME280;34310;51.904;4.256;2022-11-23T10:33:30;99615.47;;;15.03;66.61
48517;BME280;34310;51.904;4.256;2022-11-23T10:35:58;99618.91;;;15.02;66.71
48517;BME280;34310;51.904;4.256;2022-11-23T10:38:26;99599.81;;;15.01;66.69
48517;BME280;34310;51.904;4.256;2022-11-23T10:41:23;99602.47;;;15.03;66.76
48517;BME280;34310;51.904;4.256;2022-11-23T10:46:37;99594.06;;;15.10;66.38
48517;BME280;34310;51.904;4.256;2022-11-23T10:49:23;99584.84;;;15.19;65.95
48517;BME280;34310;51.904;4.256;2022-11-23T10:52:05;99570.16;;;15.22;65.95
48517;BME280;34310;51.904;4.256;2022-11-23T10:54:52;99570.44;;;15.31;65.88
48517;BME280;34310;51.904;4.256;2022-11-23T10:57:43;99568.94;;;15.37;65.71
48517;BME280;34310;51.904;4.256;2022-11-23T11:02:44;99543.31;;;15.49;65.33
48517;BME280;34310;51.904;4.256;2022-11-23T11:08:20;99538.56;;;15.63;65.27
48517;BME280;34310;51.904;4.256;2022-11-23T11:10:58;99534.41;;;15.70;64.88
48517;BME280;34310;51.904;4.256;2022-11-23T11:13:31;99524.19;;;15.76;64.77
48517;BME280;34310;51.904;4.256;2022-11-23T11:16:00;99519.84;;;15.76;64.78
48517;BME280;34310;51.904;4.256;2022-11-23T11:18:33;99518.81;;;15.70;65.16
48517;BME280;34310;51.904;4.256;2022-11-23T11:21:06;99525.81;;;15.72;64.93
48517;BME280;34310;51.904;4.256;2022-11-23T11:23:38;99527.66;;;15.76;64.85
48517;BME280;34310;51.904;4.256;2022-11-23T11:26:17;99530.41;;;15.81;64.85
48517;BME280;34310;51.904;4.256;2022-11-23T11:28:54;99518.22;;;15.80;64.73
48517;BME280;34310;51.904;4.256;2022-11-23T11:34:19;99523.22;;;15.72;64.93
48517;BME280;34310;51.904;4.256;2022-11-23T11:43:03;99512.53;;;15.63;65.25
48517;BME280;34310;51.904;4.256;2022-11-23T11:45:36;99495.94;;;15.60;65.32
48517;BME280;34310;51.904;4.256;2022-11-23T11:48:11;99502.69;;;15.55;65.57
48517;BME280;34310;51.904;4.256;2022-11-23T11:59:25;99483.25;;;15.42;65.79
48517;BME280;34310;51.904;4.256;2022-11-23T12:02:03;99472.81;;;15.40;65.59
48517;BME280;34310;51.904;4.256;2022-11-23T12:04:55;99464.09;;;15.38;65.77
48517;BME280;34310;51.904;4.256;2022-11-23T12:07:30;99465.72;;;15.35;65.80
48517;BME280;34310;51.904;4.256;2022-11-23T12:10:17;99476.13;;;15.35;65.80
48517;BME280;34310;51.904;4.256;2022-11-23T12:12:47;99457.78;;;15.32;65.84
48517;BME280;34310;51.904;4.256;2022-11-23T12:15:20;99462.94;;;15.30;65.69
48517;BME280;34310;51.904;4.256;2022-11-23T12:18:32;99462.88;;;15.27;65.53
48517;BME280;34310;51.904;4.256;2022-11-23T12:26:52;99474.81;;;15.21;66.01
48517;BME280;34310;51.904;4.256;2022-11-23T12:37:37;99490.13;;;15.11;66.31
48517;BME280;34310;51.904;4.256;2022-11-23T12:40:44;99486.59;;;15.09;66.40
48517;BME280;34310;51.904;4.256;2022-11-23T12:51:35;99496.56;;;14.96;66.52
48517;BME280;34310;51.904;4.256;2022-11-23T12:57:21;99510.25;;;14.90;66.83
48517;BME280;34310;51.904;4.256;2022-11-23T13:00:05;99512.75;;;14.87;66.74
48517;BME280;34310;51.904;4.256;2022-11-23T13:13:53;99530.53;;;14.75;67.27
48517;BME280;34310;51.904;4.256;2022-11-23T13:19:28;99533.88;;;14.72;67.28
48517;BME280;34310;51.904;4.256;2022-11-23T13:22:00;99523.50;;;14.72;67.16
48517;BME280;34310;51.904;4.256;2022-11-23T13:24:33;99528.66;;;14.71;67.33
48517;BME280;34310;51.904;4.256;2022-11-23T13:40:35;99523.09;;;14.60;67.63
48517;BME280;34310;51.904;4.256;2022-11-23T13:43:17;99524.75;;;14.58;67.75
48517;BME280;34310;51.904;4.256;2022-11-23T13:45:45;99516.09;;;14.57;67.61
48517;BME280;34310;51.904;4.256;2022-11-23T13:48:16;99509.19;;;14.58;67.62
48517;BME280;34310;51.904;4.256;2022-11-23T13:51:04;99511.72;;;14.56;67.86
48517;BME280;34310;51.904;4.256;2022-11-23T13:53:34;99509.13;;;14.56;67.69
48517;BME280;34310;51.904;4.256;2022-11-23T13:56:25;99504.81;;;14.57;67.67
48517;BME280;34310;51.904;4.256;2022-11-23T13:58:56;99510.00;;;14.57;67.84
48517;BME280;34310;51.904;4.256;2022-11-23T14:04:31;99510.06;;;14.59;67.98
48517;BME280;34310;51.904;4.256;2022-11-23T14:09:42;99534.72;;;14.71;67.58
48517;BME280;34310;51.904;4.256;2022-11-23T14:17:40;99538.22;;;14.99;66.95
48517;BME280;34310;51.904;4.256;2022-11-23T14:20:18;99538.38;;;15.03;66.90
48517;BME280;34310;51.904;4.256;2022-11-23T14:23:16;99548.09;;;15.09;66.82
48517;BME280;34310;51.904;4.256;2022-11-23T14:34:31;99568.31;;;15.17;66.60
48517;BME280;34310;51.904;4.256;2022-11-23T14:37:14;99570.97;;;15.19;66.80
48517;BME280;34310;51.904;4.256;2022-11-23T14:42:43;99567.53;;;15.20;66.63
48517;BME280;34310;51.904;4.256;2022-11-23T14:45:14;99564.91;;;15.20;66.69
48517;BME280;34310;51.904;4.256;2022-11-23T14:47:41;99559.72;;;15.20;66.59
48517;BME280;34310;51.904;4.256;2022-11-23T14:52:49;99561.44;;;15.19;66.75
48517;BME280;34310;51.904;4.256;2022-11-23T14:55:25;99564.88;;;15.18;66.71
48517;BME280;34310;51.904;4.256;2022-11-23T14:57:57;99570.91;;;15.17;66.78
48517;BME280;34310;51.904;4.256;2022-11-23T15:00:40;99578.66;;;15.16;66.74
48517;BME280;34310;51.904;4.256;2022-11-23T15:03:16;99581.25;;;15.16;67.00
48517;BME280;34310;51.904;4.256;2022-11-23T15:06:15;99580.38;;;15.15;66.83
48517;BME280;34310;51.904;4.256;2022-11-23T15:11:27;99582.88;;;15.12;66.79
48517;BME280;34310;51.904;4.256;2022-11-23T15:13:55;99592.34;;;15.10;66.84
48517;BME280;34310;51.904;4.256;2022-11-23T15:16:28;99601.88;;;15.10;66.97
48517;BME280;34310;51.904;4.256;2022-11-23T15:18:55;99589.59;;;15.06;67.01
48517;BME280;34310;51.904;4.256;2022-11-23T15:21:24;99592.19;;;15.06;67.19
48517;BME280;34310;51.904;4.256;2022-11-23T15:23:55;99599.06;;;15.04;67.19
48517;BME280;34310;51.904;4.256;2022-11-23T15:26:26;99607.66;;;15.03;67.21